Time;durP1;ratioP1;P1;durP2;ratioP2;P2;SDS_P1;SDS_P2;PMS_P1;PMS_P2;Temp;Humidity;BMP_temperature;BMP_pressure;BME280_temperature;BME280_humidity;BME280_pressure;Samples;Min_cycle;Max_cycle;Signal;HPM_P1;HPM_P2
2022/03/10 00:01:43;;;;;;;42.90;26.40;;;;;;;;;;4996673;28;20438;-68
2022/03/10 00:04:09;;;;;;;43.13;25.00;;;;;;;;;;4996632;28;20406;-73
2022/03/10 00:06:35;;;;;;;44.00;25.40;;;;;;;;;;4996693;28;20473;-72
2022/03/10 00:09:02;;;;;;;40.25;24.27;;;;;;;;;;4996597;28;20878;-74
2022/03/10 00:11:28;;;;;;;42.45;25.85;;;;;;;;;;4979276;28;20182;-71
2022/03/10 00:13:54;;;;;;;40.80;24.63;;;;;;;;;;4979118;28;20178;-74
2022/03/10 00:16:21;;;;;;;46.00;24.50;;;;;;;;;;4996432;28;20237;-74
2022/03/10 00:18:47;;;;;;;42.47;24.08;;;;;;;;;;4996483;28;20166;-74
2022/03/10 00:21:13;;;;;;;36.97;23.70;;;;;;;;;;4996307;28;20251;-73
2022/03/10 00:23:39;;;;;;;32.70;22.10;;;;;;;;;;4978879;28;20237;-67
2022/03/10 00:26:05;;;;;;;38.30;23.80;;;;;;;;;;4996268;28;20418;-67
2022/03/10 00:28:31;;;;;;;38.13;23.88;;;;;;;;;;4996254;28;20818;-68
2022/03/10 00:30:57;;;;;;;40.15;23.00;;;;;;;;;;4996171;28;20166;-70
2022/03/10 00:33:23;;;;;;;40.57;22.33;;;;;;;;;;4996106;28;20177;-69
2022/03/10 00:35:49;;;;;;;34.63;22.95;;;;;;;;;;4978435;28;21062;-71
2022/03/10 00:38:15;;;;;;;35.47;22.90;;;;;;;;;;4995535;28;20170;-71
2022/03/10 00:40:41;;;;;;;37.37;22.60;;;;;;;;;;4995939;28;20418;-72
2022/03/10 00:43:14;;;;;;;37.87;23.37;;;;;;;;;;4995879;28;20472;-70
2022/03/10 00:45:40;;;;;;;40.15;24.27;;;;;;;;;;4995825;28;20420;-73
2022/03/10 00:48:06;;;;;;;37.00;23.83;;;;;;;;;;4995793;28;20171;-69
2022/03/10 00:50:32;;;;;;;35.60;22.73;;;;;;;;;;4995857;28;20574;-67
2022/03/10 00:53:02;;;;;;;35.92;22.27;;;;;;;;;;4995753;28;20175;-69
2022/03/10 00:55:28;;;;;;;33.42;21.90;;;;;;;;;;4995655;28;20167;-74
2022/03/10 00:57:53;;;;;;;36.30;23.20;;;;;;;;;;4995574;28;20298;-72
2022/03/10 01:00:21;;;;;;;32.20;21.03;;;;;;;;;;4995658;28;20877;-73
2022/03/10 01:02:48;;;;;;;34.15;21.83;;;;;;;;;;4995547;28;20421;-72
2022/03/10 01:05:14;;;;;;;33.35;21.90;;;;;;;;;;4995430;28;20167;-72
2022/03/10 01:07:40;;;;;;;33.47;21.20;;;;;;;;;;4995509;28;20170;-75
2022/03/10 01:10:06;;;;;;;34.67;21.33;;;;;;;;;;4995381;28;20173;-74
2022/03/10 01:12:33;;;;;;;34.42;21.45;;;;;;;;;;4995275;28;20189;-70
2022/03/10 01:14:59;;;;;;;34.58;21.90;;;;;;;;;;4995347;28;20170;-71
2022/03/10 01:17:25;;;;;;;34.10;22.92;;;;;;;;;;4995198;28;20209;-74
2022/03/10 01:19:51;;;;;;;33.28;20.80;;;;;;;;;;4995245;28;20178;-73
2022/03/10 01:22:17;;;;;;;33.97;21.27;;;;;;;;;;4977735;28;20186;-70
2022/03/10 01:24:43;;;;;;;38.35;22.25;;;;;;;;;;4995163;28;20209;-68
2022/03/10 01:27:09;;;;;;;36.38;23.05;;;;;;;;;;4977666;28;20527;-67
2022/03/10 01:29:35;;;;;;;37.28;23.23;;;;;;;;;;4977586;28;20713;-68
2022/03/10 01:32:01;;;;;;;40.58;24.38;;;;;;;;;;4995004;28;20257;-69
2022/03/10 01:34:27;;;;;;;40.67;24.67;;;;;;;;;;4995000;28;20259;-67
2022/03/10 01:36:53;;;;;;;43.83;23.47;;;;;;;;;;4994644;28;20861;-70
2022/03/10 01:39:19;;;;;;;38.40;23.27;;;;;;;;;;4994921;28;20406;-70
2022/03/10 01:41:45;;;;;;;35.80;22.27;;;;;;;;;;4994873;28;20559;-73
2022/03/10 01:44:12;;;;;;;43.55;24.23;;;;;;;;;;4994815;28;20410;-75
2022/03/10 01:46:38;;;;;;;43.95;23.80;;;;;;;;;;4994947;28;20166;-72
2022/03/10 01:49:05;;;;;;;38.92;23.55;;;;;;;;;;4994552;28;20170;-72
2022/03/10 01:51:31;;;;;;;40.05;22.48;;;;;;;;;;4994446;28;20177;-74
2022/03/10 01:53:58;;;;;;;43.75;21.42;;;;;;;;;;4994576;28;20163;-71
2022/03/10 01:56:24;;;;;;;34.80;21.35;;;;;;;;;;4994660;28;20218;-74
2022/03/10 01:58:51;;;;;;;34.33;20.95;;;;;;;;;;4994551;28;20186;-73
2022/03/10 02:01:18;;;;;;;39.72;23.10;;;;;;;;;;4994583;28;20174;-72
2022/03/10 02:03:44;;;;;;;34.38;21.08;;;;;;;;;;4994549;28;20174;-70
2022/03/10 02:06:10;;;;;;;37.07;22.50;;;;;;;;;;4994234;28;20234;-74
2022/03/10 02:11:21;;;;;;;39.00;20.45;;;;;;;;;;4994428;28;20225;-71
2022/03/10 02:13:47;;;;;;;34.35;21.45;;;;;;;;;;4976882;28;20192;-70
2022/03/10 02:18:59;;;;;;;36.58;21.20;;;;;;;;;;4994688;28;20758;-71
2022/03/10 02:21:26;;;;;;;33.67;21.83;;;;;;;;;;4994260;28;20170;-67
2022/03/10 02:23:52;;;;;;;38.22;22.10;;;;;;;;;;4976775;28;20179;-67
2022/03/10 02:26:18;;;;;;;32.08;20.75;;;;;;;;;;4994238;28;20177;-71
2022/03/10 02:28:44;;;;;;;33.80;22.25;;;;;;;;;;4994142;28;20186;-68
2022/03/10 02:31:10;;;;;;;32.85;21.38;;;;;;;;;;4994173;28;20554;-73
2022/03/10 02:33:36;;;;;;;37.25;21.63;;;;;;;;;;4994062;28;20182;-70
2022/03/10 02:36:03;;;;;;;37.03;20.50;;;;;;;;;;4993998;28;20212;-70
2022/03/10 02:38:29;;;;;;;33.92;20.60;;;;;;;;;;4994055;28;20456;-69
2022/03/10 02:40:56;;;;;;;33.33;20.63;;;;;;;;;;4976644;28;20178;-68
2022/03/10 02:43:22;;;;;;;35.08;20.60;;;;;;;;;;4993968;28;20210;-70
2022/03/10 02:45:48;;;;;;;34.58;21.45;;;;;;;;;;4976599;28;20183;-72
2022/03/10 02:48:15;;;;;;;37.65;20.35;;;;;;;;;;4994209;28;20197;-68
2022/03/10 02:50:42;;;;;;;34.97;21.02;;;;;;;;;;4993871;28;20729;-67
2022/03/10 02:53:08;;;;;;;33.10;20.35;;;;;;;;;;4993961;28;20179;-70
2022/03/10 02:55:34;;;;;;;37.22;20.73;;;;;;;;;;4993838;28;20627;-70
2022/03/10 02:58:00;;;;;;;34.90;20.77;;;;;;;;;;4993795;28;20189;-73
2022/03/10 03:00:26;;;;;;;34.55;20.73;;;;;;;;;;4993801;28;20170;-70
2022/03/10 03:02:52;;;;;;;39.60;21.20;;;;;;;;;;4997711;28;20269;-74
2022/03/10 03:05:19;;;;;;;33.30;19.80;;;;;;;;;;4997618;28;20698;-75
2022/03/10 03:07:45;;;;;;;31.83;20.20;;;;;;;;;;4997683;28;20417;-75
2022/03/10 03:10:11;;;;;;;36.22;20.45;;;;;;;;;;4997780;28;20544;-74
2022/03/10 03:12:47;;;;;;;33.78;20.35;;;;;;;;;;4997507;28;20179;-74
2022/03/10 03:15:14;;;;;;;29.60;19.40;;;;;;;;;;4997561;28;20181;-75
2022/03/10 03:17:40;;;;;;;36.08;20.75;;;;;;;;;;4997450;28;20206;-75
2022/03/10 03:20:06;;;;;;;34.33;20.53;;;;;;;;;;4997524;28;20232;-73
2022/03/10 03:22:32;;;;;;;34.30;19.48;;;;;;;;;;4997377;28;20500;-75
2022/03/10 03:24:58;;;;;;;34.50;21.60;;;;;;;;;;4997470;28;20626;-75
2022/03/10 03:27:24;;;;;;;34.20;20.07;;;;;;;;;;4997263;28;20414;-74
2022/03/10 03:29:50;;;;;;;40.23;23.07;;;;;;;;;;4997806;28;20501;-70
2022/03/10 03:32:16;;;;;;;38.30;22.10;;;;;;;;;;4980024;28;20917;-73
2022/03/10 03:34:42;;;;;;;35.92;21.15;;;;;;;;;;4997499;28;20166;-73
2022/03/10 03:37:08;;;;;;;37.43;21.37;;;;;;;;;;4979636;28;20227;-71
2022/03/10 03:39:34;;;;;;;34.50;20.90;;;;;;;;;;4997156;28;20771;-72
2022/03/10 03:42:00;;;;;;;36.40;21.73;;;;;;;;;;4997029;28;20410;-70
2022/03/10 03:44:26;;;;;;;42.70;23.13;;;;;;;;;;4997117;28;20497;-70
2022/03/10 03:46:52;;;;;;;36.63;21.10;;;;;;;;;;4996918;28;20437;-74
2022/03/10 03:49:18;;;;;;;40.30;22.95;;;;;;;;;;4997258;28;20508;-73
2022/03/10 03:51:44;;;;;;;37.20;22.57;;;;;;;;;;4996911;28;20665;-76
2022/03/10 03:54:10;;;;;;;41.07;23.47;;;;;;;;;;4996955;28;20456;-73
2022/03/10 03:56:37;;;;;;;38.88;20.92;;;;;;;;;;4996763;28;21026;-69
2022/03/10 03:59:03;;;;;;;37.97;22.90;;;;;;;;;;4996738;28;20580;-73
2022/03/10 04:01:29;;;;;;;33.90;22.15;;;;;;;;;;4996783;28;20177;-76
2022/03/10 04:03:55;;;;;;;38.42;21.75;;;;;;;;;;4996728;28;20173;-73
2022/03/10 04:06:22;;;;;;;37.25;21.83;;;;;;;;;;4996536;28;20234;-75
2022/03/10 04:08:48;;;;;;;38.55;22.75;;;;;;;;;;4996638;28;20163;-76
2022/03/10 04:11:14;;;;;;;34.33;20.90;;;;;;;;;;4996623;28;20665;-73
2022/03/10 04:13:40;;;;;;;34.83;21.07;;;;;;;;;;4978126;28;20927;-73
2022/03/10 04:16:06;;;;;;;33.53;21.90;;;;;;;;;;4996394;28;20544;-74
2022/03/10 04:18:32;;;;;;;36.13;21.45;;;;;;;;;;4996498;28;20175;-70
2022/03/10 04:20:59;;;;;;;34.30;22.05;;;;;;;;;;4996259;28;20166;-76
2022/03/10 04:23:26;;;;;;;38.92;22.42;;;;;;;;;;4978861;28;20181;-74
2022/03/10 04:25:53;;;;;;;36.92;23.50;;;;;;;;;;4996306;28;20253;-73
2022/03/10 04:28:19;;;;;;;35.13;22.73;;;;;;;;;;4996247;28;20187;-68
2022/03/10 04:30:45;;;;;;;40.60;22.70;;;;;;;;;;4996266;28;20578;-71
2022/03/10 04:33:11;;;;;;;40.33;23.40;;;;;;;;;;4996188;28;20414;-75
2022/03/10 04:35:37;;;;;;;41.25;22.00;;;;;;;;;;4996128;28;20647;-75
2022/03/10 04:38:03;;;;;;;41.42;23.52;;;;;;;;;;4996050;28;20187;-75
2022/03/10 04:40:29;;;;;;;36.95;22.75;;;;;;;;;;4996126;28;20193;-76
2022/03/10 04:42:55;;;;;;;44.08;23.65;;;;;;;;;;4995942;28;20181;-75
2022/03/10 04:45:22;;;;;;;36.53;22.75;;;;;;;;;;4995982;28;20249;-74
2022/03/10 04:47:48;;;;;;;42.40;21.67;;;;;;;;;;4995986;28;20193;-75
2022/03/10 04:50:14;;;;;;;39.83;23.38;;;;;;;;;;4995894;28;20178;-70
2022/03/10 04:52:40;;;;;;;39.45;23.10;;;;;;;;;;4995867;28;20175;-71
2022/03/10 04:55:07;;;;;;;38.40;22.00;;;;;;;;;;4995815;28;20206;-71
2022/03/10 04:57:34;;;;;;;41.55;23.35;;;;;;;;;;4995875;28;20229;-75
2022/03/10 05:00:00;;;;;;;37.78;22.27;;;;;;;;;;4995963;28;20190;-73
2022/03/10 05:02:26;;;;;;;34.67;22.23;;;;;;;;;;4995621;28;20171;-73
2022/03/10 05:04:52;;;;;;;42.50;21.93;;;;;;;;;;4995616;28;20182;-72
2022/03/10 05:07:17;;;;;;;42.80;23.30;;;;;;;;;;4995400;28;20512;-73
2022/03/10 05:09:43;;;;;;;42.63;23.40;;;;;;;;;;4995717;28;20406;-72
2022/03/10 05:12:10;;;;;;;34.97;21.97;;;;;;;;;;4995563;28;20784;-72
2022/03/10 05:14:36;;;;;;;36.42;21.08;;;;;;;;;;4995443;28;20402;-67
2022/03/10 05:17:02;;;;;;;36.20;22.00;;;;;;;;;;4995378;28;20289;-74
2022/03/10 05:19:28;;;;;;;36.70;21.65;;;;;;;;;;4995353;28;20398;-70
2022/03/10 05:21:54;;;;;;;35.58;22.00;;;;;;;;;;4995133;28;20178;-69
2022/03/10 05:24:20;;;;;;;37.70;22.40;;;;;;;;;;4995212;28;20174;-67
2022/03/10 05:26:47;;;;;;;39.17;23.30;;;;;;;;;;4995190;28;20418;-70
2022/03/10 05:29:13;;;;;;;36.55;22.42;;;;;;;;;;4995064;28;20413;-70
2022/03/10 05:31:40;;;;;;;43.13;24.88;;;;;;;;;;4977619;28;20178;-69
2022/03/10 05:34:07;;;;;;;43.78;23.20;;;;;;;;;;4977744;28;20213;-73
2022/03/10 05:36:34;;;;;;;40.60;22.13;;;;;;;;;;4994855;28;20238;-74
2022/03/10 05:39:00;;;;;;;36.92;22.15;;;;;;;;;;4977512;28;20189;-67
2022/03/10 05:41:26;;;;;;;40.05;21.70;;;;;;;;;;4994916;28;20163;-74
2022/03/10 05:43:52;;;;;;;38.83;22.58;;;;;;;;;;4994816;28;20236;-70
2022/03/10 05:46:18;;;;;;;40.63;24.27;;;;;;;;;;4994864;28;20629;-73
2022/03/10 05:48:44;;;;;;;41.00;23.73;;;;;;;;;;4994709;28;20429;-72
2022/03/10 05:51:10;;;;;;;41.77;22.90;;;;;;;;;;4994687;28;20417;-74
2022/03/10 05:53:36;;;;;;;41.33;24.47;;;;;;;;;;4994723;28;20414;-70
2022/03/10 05:56:03;;;;;;;43.97;24.23;;;;;;;;;;4994618;28;20465;-66
2022/03/10 05:58:29;;;;;;;41.60;24.80;;;;;;;;;;4994496;28;20433;-74
2022/03/10 06:00:55;;;;;;;54.57;25.33;;;;;;;;;;4994581;28;20221;-75
2022/03/10 06:03:21;;;;;;;50.37;25.73;;;;;;;;;;4977130;28;20932;-70
2022/03/10 06:05:47;;;;;;;43.05;24.30;;;;;;;;;;4994542;28;20532;-69
2022/03/10 06:08:13;;;;;;;53.45;26.50;;;;;;;;;;4994472;28;20209;-75
2022/03/10 06:10:39;;;;;;;55.15;29.55;;;;;;;;;;4994378;28;20420;-69
2022/03/10 06:13:05;;;;;;;60.73;32.70;;;;;;;;;;4994371;28;20177;-70
2022/03/10 06:15:31;;;;;;;65.35;30.80;;;;;;;;;;4994304;28;20747;-74
2022/03/10 06:17:57;;;;;;;61.28;29.63;;;;;;;;;;4994254;28;20665;-74
2022/03/10 06:20:23;;;;;;;52.50;29.02;;;;;;;;;;4976882;28;20175;-72
2022/03/10 06:22:49;;;;;;;55.15;28.55;;;;;;;;;;4994223;28;20182;-72
2022/03/10 06:25:15;;;;;;;71.47;48.63;;;;;;;;;;4994253;28;20170;-71
2022/03/10 06:27:41;;;;;;;56.88;33.33;;;;;;;;;;4994184;28;20418;-71
2022/03/10 06:30:08;;;;;;;48.93;26.87;;;;;;;;;;4994108;28;20170;-67
2022/03/10 06:32:34;;;;;;;53.08;26.58;;;;;;;;;;4994162;28;20410;-67
2022/03/10 06:35:00;;;;;;;43.95;27.17;;;;;;;;;;4994135;28;20170;-68
2022/03/10 06:37:26;;;;;;;46.20;25.23;;;;;;;;;;4976160;28;20225;-67
2022/03/10 06:39:52;;;;;;;47.25;26.05;;;;;;;;;;4994050;28;20468;-67
2022/03/10 06:42:19;;;;;;;116.65;62.25;;;;;;;;;;4994112;28;20213;-68
2022/03/10 06:44:45;;;;;;;46.10;25.65;;;;;;;;;;4994008;28;20273;-67
2022/03/10 06:47:12;;;;;;;41.75;27.23;;;;;;;;;;4994032;28;20257;-69
2022/03/10 06:49:39;;;;;;;43.75;26.38;;;;;;;;;;4993884;28;20257;-69
2022/03/10 06:52:05;;;;;;;44.88;26.85;;;;;;;;;;4994165;28;20170;-68
2022/03/10 06:54:31;;;;;;;42.97;25.98;;;;;;;;;;4976946;28;20179;-68
2022/03/10 06:56:58;;;;;;;41.10;24.23;;;;;;;;;;4993834;28;20268;-69
2022/03/10 06:59:24;;;;;;;41.83;24.90;;;;;;;;;;4993791;28;20630;-70
2022/03/10 07:01:50;;;;;;;38.20;23.43;;;;;;;;;;4976401;28;20184;-69
2022/03/10 07:04:16;;;;;;;43.50;25.10;;;;;;;;;;4976420;28;20426;-69
2022/03/10 07:06:42;;;;;;;42.85;25.33;;;;;;;;;;4976172;28;20481;-68
2022/03/10 07:09:08;;;;;;;45.17;23.95;;;;;;;;;;4993794;28;20171;-70
2022/03/10 07:11:34;;;;;;;46.42;25.63;;;;;;;;;;4993759;28;20171;-71
2022/03/10 07:14:00;;;;;;;43.30;24.97;;;;;;;;;;4993781;28;20185;-72
2022/03/10 07:16:26;;;;;;;43.33;24.98;;;;;;;;;;4993688;28;20801;-65
2022/03/10 07:18:51;;;;;;;43.83;25.87;;;;;;;;;;4993689;28;20173;-67
2022/03/10 07:21:18;;;;;;;147.18;70.20;;;;;;;;;;4993613;28;20464;-67
2022/03/10 07:23:44;;;;;;;63.42;28.90;;;;;;;;;;4993720;28;20258;-68
2022/03/10 07:26:11;;;;;;;52.55;29.25;;;;;;;;;;4975986;28;20233;-70
2022/03/10 07:28:37;;;;;;;51.22;30.80;;;;;;;;;;4993610;28;20653;-69
2022/03/10 07:31:03;;;;;;;61.90;33.30;;;;;;;;;;4993525;28;20178;-67
2022/03/10 07:33:29;;;;;;;57.60;31.50;;;;;;;;;;4993558;28;20418;-68
2022/03/10 07:35:55;;;;;;;53.38;32.67;;;;;;;;;;4993449;28;20537;-68
2022/03/10 07:38:21;;;;;;;60.95;31.60;;;;;;;;;;4993519;28;20175;-68
2022/03/10 07:40:47;;;;;;;51.43;30.57;;;;;;;;;;4993532;28;20664;-68
2022/03/10 07:43:13;;;;;;;55.75;30.83;;;;;;;;;;4993447;28;20418;-67
2022/03/10 07:45:39;;;;;;;53.20;28.90;;;;;;;;;;4993398;28;20551;-68
2022/03/10 07:48:05;;;;;;;75.53;45.17;;;;;;;;;;4976685;28;20182;-68
2022/03/10 07:50:31;;;;;;;69.05;37.88;;;;;;;;;;4997128;28;20420;-69
2022/03/10 07:52:57;;;;;;;48.70;28.70;;;;;;;;;;4996693;28;20253;-68
2022/03/10 07:55:23;;;;;;;48.17;28.40;;;;;;;;;;4996963;28;20229;-68
2022/03/10 07:57:49;;;;;;;47.53;28.70;;;;;;;;;;4996970;28;20481;-68
2022/03/10 08:00:15;;;;;;;46.17;28.70;;;;;;;;;;4979311;28;20913;-68
2022/03/10 08:02:42;;;;;;;42.70;25.23;;;;;;;;;;4996706;28;20414;-67
2022/03/10 08:05:09;;;;;;;40.65;25.63;;;;;;;;;;4996630;28;20170;-67
2022/03/10 08:07:35;;;;;;;42.58;24.35;;;;;;;;;;4996704;28;20175;-67
2022/03/10 08:10:02;;;;;;;36.97;23.30;;;;;;;;;;4996629;28;20177;-68
2022/03/10 08:12:29;;;;;;;35.67;22.10;;;;;;;;;;4996840;28;20265;-68
2022/03/10 08:14:55;;;;;;;35.90;21.88;;;;;;;;;;4996528;28;20642;-67
2022/03/10 08:17:21;;;;;;;35.23;21.17;;;;;;;;;;4978912;28;20430;-68
2022/03/10 08:19:47;;;;;;;35.47;20.98;;;;;;;;;;4996452;28;20412;-67
2022/03/10 08:22:15;;;;;;;31.20;19.83;;;;;;;;;;4996381;28;20170;-68
2022/03/10 08:24:41;;;;;;;30.30;21.17;;;;;;;;;;4996433;28;20406;-67
2022/03/10 08:27:07;;;;;;;32.13;21.13;;;;;;;;;;4996268;28;20175;-67
2022/03/10 08:29:33;;;;;;;39.28;21.45;;;;;;;;;;4996293;28;20155;-67
2022/03/10 08:31:59;;;;;;;40.37;21.00;;;;;;;;;;4996357;28;20536;-67
2022/03/10 08:34:25;;;;;;;35.13;22.15;;;;;;;;;;4996126;28;20410;-67
2022/03/10 08:36:51;;;;;;;33.03;20.80;;;;;;;;;;4995990;28;20210;-67
2022/03/10 08:39:18;;;;;;;37.42;21.70;;;;;;;;;;4978654;28;20421;-67
2022/03/10 08:41:44;;;;;;;39.63;22.40;;;;;;;;;;4996243;28;20175;-68
2022/03/10 08:44:12;;;;;;;34.80;22.70;;;;;;;;;;4995971;28;20166;-68
2022/03/10 08:46:38;;;;;;;38.63;22.90;;;;;;;;;;4995902;28;20386;-67
2022/03/10 08:49:04;;;;;;;34.17;22.20;;;;;;;;;;4995919;28;20475;-68
2022/03/10 08:51:30;;;;;;;36.70;21.27;;;;;;;;;;4995837;28;20261;-67
2022/03/10 08:53:56;;;;;;;32.17;21.57;;;;;;;;;;4995805;28;20388;-67
2022/03/10 08:56:22;;;;;;;39.47;22.50;;;;;;;;;;4995712;28;20432;-67
2022/03/10 08:58:48;;;;;;;39.23;22.93;;;;;;;;;;4995314;28;20407;-67
2022/03/10 09:01:14;;;;;;;39.70;24.07;;;;;;;;;;4978213;28;20475;-67
2022/03/10 09:03:40;;;;;;;40.10;24.20;;;;;;;;;;4995698;28;20633;-67
2022/03/10 09:06:07;;;;;;;33.50;22.57;;;;;;;;;;4995448;28;20461;-68
2022/03/10 09:08:33;;;;;;;39.33;23.37;;;;;;;;;;4995492;28;20863;-68
2022/03/10 09:11:00;;;;;;;42.87;25.60;;;;;;;;;;4977949;28;20388;-67
2022/03/10 09:13:27;;;;;;;33.37;23.07;;;;;;;;;;4995320;28;20400;-68
2022/03/10 09:15:53;;;;;;;38.77;23.93;;;;;;;;;;4995391;28;20381;-68
2022/03/10 09:18:19;;;;;;;38.60;24.30;;;;;;;;;;4995464;28;20425;-68
2022/03/10 09:20:45;;;;;;;34.30;23.17;;;;;;;;;;4977897;28;20845;-68
2022/03/10 09:23:11;;;;;;;41.43;25.60;;;;;;;;;;4995240;28;20388;-67
2022/03/10 09:25:38;;;;;;;41.13;24.17;;;;;;;;;;4995271;28;20418;-67
2022/03/10 09:28:04;;;;;;;38.00;23.80;;;;;;;;;;4995417;28;20417;-67
2022/03/10 09:30:30;;;;;;;38.40;24.97;;;;;;;;;;4995158;28;20420;-68
2022/03/10 09:32:57;;;;;;;34.87;24.17;;;;;;;;;;4995074;28;20410;-68
2022/03/10 09:35:24;;;;;;;38.90;26.17;;;;;;;;;;4995052;28;20405;-67
2022/03/10 09:37:50;;;;;;;39.33;24.87;;;;;;;;;;4995072;28;20870;-68
2022/03/10 09:40:16;;;;;;;35.70;23.93;;;;;;;;;;4995048;28;20774;-67
2022/03/10 09:42:43;;;;;;;39.47;25.07;;;;;;;;;;4994897;28;20753;-67
2022/03/10 09:45:10;;;;;;;43.10;24.67;;;;;;;;;;4994940;28;20841;-68
2022/03/10 09:47:37;;;;;;;49.50;26.37;;;;;;;;;;4994769;28;20421;-67
2022/03/10 09:50:04;;;;;;;41.90;25.00;;;;;;;;;;4995061;28;20402;-68
2022/03/10 09:52:31;;;;;;;42.77;26.07;;;;;;;;;;4994683;28;20854;-68
2022/03/10 09:54:57;;;;;;;43.70;25.77;;;;;;;;;;4994954;28;20806;-68
2022/03/10 09:57:23;;;;;;;43.60;25.90;;;;;;;;;;4994595;28;20481;-68
2022/03/10 09:59:54;;;;;;;47.63;26.50;;;;;;;;;;4994617;28;20463;-67
2022/03/10 10:02:20;;;;;;;40.43;26.93;;;;;;;;;;4994672;28;20889;-68
2022/03/10 10:04:48;;;;;;;43.97;26.60;;;;;;;;;;4994503;28;20429;-68
2022/03/10 10:07:14;;;;;;;40.77;26.83;;;;;;;;;;4976849;28;20525;-68
2022/03/10 10:09:40;;;;;;;41.00;26.40;;;;;;;;;;4977101;28;20483;-68
2022/03/10 10:12:06;;;;;;;37.90;25.90;;;;;;;;;;4993692;28;20969;-68
2022/03/10 10:14:40;;;;;;;41.67;27.57;;;;;;;;;;4994225;28;20412;-68
2022/03/10 10:17:07;;;;;;;42.47;28.13;;;;;;;;;;4976884;28;20572;-68
2022/03/10 10:19:34;;;;;;;42.70;27.27;;;;;;;;;;4994339;28;20409;-68
2022/03/10 10:22:13;;;;;;;45.20;27.30;;;;;;;;;;4994195;28;20460;-68
2022/03/10 10:24:39;;;;;;;41.40;28.13;;;;;;;;;;4994285;28;20459;-68
2022/03/10 10:27:13;;;;;;;41.07;28.47;;;;;;;;;;4994164;28;20398;-68
2022/03/10 10:29:49;;;;;;;41.03;27.40;;;;;;;;;;4994420;28;20733;-69
2022/03/10 10:32:35;;;;;;;38.80;27.27;;;;;;;;;;4994049;28;20775;-68
2022/03/10 10:35:12;;;;;;;39.17;26.87;;;;;;;;;;4993806;28;20945;-68
2022/03/10 10:37:39;;;;;;;43.17;28.07;;;;;;;;;;4994103;28;20955;-68
2022/03/10 10:40:06;;;;;;;86.50;63.57;;;;;;;;;;4994107;28;20428;-68
2022/03/10 10:42:34;;;;;;;53.07;28.70;;;;;;;;;;4993982;28;20432;-69
2022/03/10 10:45:00;;;;;;;42.80;29.00;;;;;;;;;;4994083;28;20423;-69
2022/03/10 10:47:27;;;;;;;40.60;28.53;;;;;;;;;;4993897;28;20464;-69
2022/03/10 10:49:57;;;;;;;41.07;28.17;;;;;;;;;;4994010;28;20503;-69
2022/03/10 10:52:24;;;;;;;39.73;29.47;;;;;;;;;;4993861;28;20884;-69
2022/03/10 10:55:03;;;;;;;38.73;29.67;;;;;;;;;;4993948;28;20941;-69
2022/03/10 10:57:34;;;;;;;43.43;29.70;;;;;;;;;;4993838;28;21020;-69
2022/03/10 11:00:18;;;;;;;38.40;28.57;;;;;;;;;;4994153;28;20408;-69
2022/03/10 11:02:44;;;;;;;37.97;29.57;;;;;;;;;;4994096;28;20840;-69
2022/03/10 11:05:12;;;;;;;34.93;29.40;;;;;;;;;;4993559;28;20415;-69
2022/03/10 11:07:42;;;;;;;37.10;29.90;;;;;;;;;;4993736;28;20460;-69
2022/03/10 11:10:10;;;;;;;41.20;30.50;;;;;;;;;;4993802;28;20409;-69
2022/03/10 11:12:39;;;;;;;34.00;28.33;;;;;;;;;;4976171;28;20928;-70
2022/03/10 11:15:07;;;;;;;37.30;29.27;;;;;;;;;;4976261;28;20429;-69
2022/03/10 11:17:34;;;;;;;35.03;31.23;;;;;;;;;;4976191;28;20904;-69
2022/03/10 11:20:01;;;;;;;40.03;31.30;;;;;;;;;;4993757;28;20412;-70
2022/03/10 11:22:46;;;;;;;43.40;30.30;;;;;;;;;;4995042;28;20443;-70
2022/03/10 11:25:24;;;;;;;36.63;30.87;;;;;;;;;;4997731;28;20433;-70
2022/03/10 11:27:53;;;;;;;36.93;30.37;;;;;;;;;;4997320;28;20828;-70
2022/03/10 11:30:23;;;;;;;40.43;31.67;;;;;;;;;;4997396;28;20417;-69
2022/03/10 11:33:09;;;;;;;39.70;31.60;;;;;;;;;;4997423;28;20415;-70
2022/03/10 11:35:40;;;;;;;41.60;32.33;;;;;;;;;;4997349;28;20406;-70
2022/03/10 11:38:06;;;;;;;47.10;32.77;;;;;;;;;;4997436;28;20476;-70
2022/03/10 11:40:41;;;;;;;34.07;29.53;;;;;;;;;;4997224;28;20409;-70
2022/03/10 11:43:07;;;;;;;44.47;31.60;;;;;;;;;;4997105;28;20419;-70
2022/03/10 11:45:33;;;;;;;48.00;31.77;;;;;;;;;;4997112;28;20435;-70
2022/03/10 11:48:17;;;;;;;44.37;33.50;;;;;;;;;;4997070;28;20473;-70
2022/03/10 11:50:43;;;;;;;49.47;32.60;;;;;;;;;;4997048;28;20889;-70
2022/03/10 11:53:12;;;;;;;35.10;31.30;;;;;;;;;;4996983;28;20429;-69
2022/03/10 11:55:42;;;;;;;37.73;31.53;;;;;;;;;;4997209;28;20524;-70
2022/03/10 11:58:10;;;;;;;39.60;31.10;;;;;;;;;;4997034;28;20491;-70
2022/03/10 12:00:51;;;;;;;37.77;31.73;;;;;;;;;;4996924;28;20424;-69
2022/03/10 12:03:36;;;;;;;41.33;32.77;;;;;;;;;;4979351;28;20436;-70
2022/03/10 12:06:04;;;;;;;38.67;31.80;;;;;;;;;;4996638;28;20515;-69
2022/03/10 12:08:31;;;;;;;38.83;32.53;;;;;;;;;;4996641;28;20421;-69
2022/03/10 12:10:57;;;;;;;44.87;33.93;;;;;;;;;;4996705;28;20403;-69
2022/03/10 12:13:28;;;;;;;41.63;33.43;;;;;;;;;;4996600;28;20430;-71
2022/03/10 12:15:54;;;;;;;45.90;34.50;;;;;;;;;;4996378;28;20462;-70
2022/03/10 12:18:23;;;;;;;49.70;33.80;;;;;;;;;;4996541;28;20421;-71
2022/03/10 12:20:50;;;;;;;49.40;33.90;;;;;;;;;;4996417;28;21107;-71
2022/03/10 12:23:19;;;;;;;41.27;31.77;;;;;;;;;;4996418;28;20916;-71
2022/03/10 12:25:55;;;;;;;41.87;33.40;;;;;;;;;;4996405;28;20430;-71
2022/03/10 12:28:25;;;;;;;42.97;33.13;;;;;;;;;;4996106;28;20926;-71
2022/03/10 12:31:00;;;;;;;42.97;32.60;;;;;;;;;;4996086;28;20399;-70
2022/03/10 12:33:26;;;;;;;40.47;33.70;;;;;;;;;;4995574;28;20404;-70
2022/03/10 12:35:55;;;;;;;42.50;31.90;;;;;;;;;;4995991;28;20503;-71
2022/03/10 12:38:34;;;;;;;44.17;34.07;;;;;;;;;;4996095;28;20424;-70
2022/03/10 12:41:00;;;;;;;50.97;34.20;;;;;;;;;;4996146;28;20421;-70
2022/03/10 12:43:27;;;;;;;45.07;33.30;;;;;;;;;;4995841;28;20410;-71
2022/03/10 12:45:53;;;;;;;39.30;31.40;;;;;;;;;;4995918;28;20433;-69
2022/03/10 12:48:24;;;;;;;43.13;33.83;;;;;;;;;;4995908;28;20978;-71
2022/03/10 12:50:50;;;;;;;40.87;32.57;;;;;;;;;;4995786;28;20447;-69
2022/03/10 12:53:18;;;;;;;44.53;33.23;;;;;;;;;;4978241;28;20465;-69
2022/03/10 12:55:44;;;;;;;55.37;32.73;;;;;;;;;;4995648;28;20898;-71
2022/03/10 12:58:11;;;;;;;41.97;32.23;;;;;;;;;;4995819;28;20511;-71
2022/03/10 13:00:37;;;;;;;52.77;34.33;;;;;;;;;;4995680;28;20886;-70
2022/03/10 13:03:04;;;;;;;41.90;31.97;;;;;;;;;;4995828;28;20443;-71
2022/03/10 13:05:31;;;;;;;48.10;31.60;;;;;;;;;;4995408;28;20463;-71
2022/03/10 13:08:12;;;;;;;47.57;32.13;;;;;;;;;;4995500;28;20416;-71
2022/03/10 13:10:38;;;;;;;46.43;33.20;;;;;;;;;;4995495;28;20440;-71
2022/03/10 13:13:05;;;;;;;46.60;31.00;;;;;;;;;;4995209;28;20428;-69
2022/03/10 13:15:33;;;;;;;43.50;31.83;;;;;;;;;;4995465;28;20491;-71
2022/03/10 13:18:03;;;;;;;42.47;31.50;;;;;;;;;;4977959;28;20614;-72
2022/03/10 13:20:30;;;;;;;45.70;31.63;;;;;;;;;;4995395;28;20417;-73
2022/03/10 13:22:59;;;;;;;44.30;31.17;;;;;;;;;;4995289;28;20404;-72
2022/03/10 13:25:26;;;;;;;45.80;30.13;;;;;;;;;;4995271;28;20883;-74
2022/03/10 13:27:58;;;;;;;43.43;30.47;;;;;;;;;;4995088;28;20413;-74
2022/03/10 13:30:29;;;;;;;44.57;30.60;;;;;;;;;;4995147;28;20410;-72
2022/03/10 13:32:56;;;;;;;43.97;29.10;;;;;;;;;;4995397;28;20413;-72
2022/03/10 13:35:24;;;;;;;44.40;28.03;;;;;;;;;;4995029;28;20773;-73
2022/03/10 13:37:50;;;;;;;51.47;26.73;;;;;;;;;;4994879;28;20978;-73
2022/03/10 13:40:17;;;;;;;53.60;29.27;;;;;;;;;;4995053;28;20491;-72
2022/03/10 13:42:49;;;;;;;48.50;27.90;;;;;;;;;;4994743;28;20933;-72
2022/03/10 13:45:15;;;;;;;48.27;27.90;;;;;;;;;;4994205;28;20397;-72
2022/03/10 13:47:57;;;;;;;41.53;28.60;;;;;;;;;;4994583;28;20429;-72
2022/03/10 13:50:24;;;;;;;53.03;28.67;;;;;;;;;;4994942;28;20402;-72
2022/03/10 13:52:55;;;;;;;45.03;29.30;;;;;;;;;;4994788;28;20414;-71
2022/03/10 13:55:28;;;;;;;44.00;27.20;;;;;;;;;;4994776;28;20500;-71
2022/03/10 13:57:54;;;;;;;41.53;27.60;;;;;;;;;;4994530;28;20482;-71
2022/03/10 14:00:32;;;;;;;50.17;28.30;;;;;;;;;;4994644;28;20881;-71
2022/03/10 14:02:58;;;;;;;49.67;27.80;;;;;;;;;;4994447;28;20416;-72
2022/03/10 14:05:25;;;;;;;52.47;28.90;;;;;;;;;;4994472;28;20878;-74
2022/03/10 14:07:51;;;;;;;38.17;29.13;;;;;;;;;;4994790;28;20410;-72
2022/03/10 14:10:27;;;;;;;41.43;29.70;;;;;;;;;;4994503;28;20892;-71
2022/03/10 14:12:53;;;;;;;47.47;27.87;;;;;;;;;;4994356;28;20911;-72
2022/03/10 14:15:26;;;;;;;37.73;26.33;;;;;;;;;;4994479;28;20410;-70
2022/03/10 14:17:56;;;;;;;40.83;27.27;;;;;;;;;;4994247;28;20966;-73
2022/03/10 14:20:22;;;;;;;41.23;28.20;;;;;;;;;;4994358;28;20525;-72
2022/03/10 14:22:49;;;;;;;40.80;29.17;;;;;;;;;;4994256;28;20420;-71